Portada
METAR-TAF:

METAR-TAF

Aeroports :

Army Air Corps Middle Wallop

Middle Wallop, Anglaterra

latitud: 51-09N, longitud: 001-34W, altitud: 91 m

Observació

L'informe es va fer fa 1 hora i 4 minuts, a les 12:50 UTC
Vent 12 kt del Oest
Temperatura 11°C
Humitat 82%
Pressió 1000 hPa
Visibilitat 10 km o més
pluja

METAR: EGVP 061250Z AUTO 26012KT 9999 -RA SCT015/// BKN021/// 11/08 Q1000

Hora: 14:54 (13:54 UTC)

Pronòstic

L'informe es va fer fa 27 hores i 18 minuts, a les 10:36 UTC
Pronòstic vàlid del 05 a les 12 UTC al 05 a les 17 UTC
Vent 15 kt del Oest/Nord-Oest amb ràfegues de 25 kt
Visibilitat 10 km o més
Núvols disperses a una alçada de 4500 ft
Probabilitat 30% :
Temporalment
l' 05 a les 14 UTC al 05 a les 17 UTC
Visibilitat: 7000 m
xàfecs de pluja

TAF: EGVP 051036Z 0512/0517 30015G25KT 9999 SCT045 PROB30 TEMPO 0514/0517 7000 SHRA

Observacions i pronòstics meteorològics de més de 4000 aeroports (METAR i TAF).

Les estacions disponibles són els punts grocs i vermells al mapa.

Posi el ratolí al punt desitjat per veure el nom de l'estació.

Feu clic per veure les observacions i els pronòstics meteorològics.

Per canviar el mapa: feu clic els botons verds amb una creu de color negre per apropar; al botó verd amb un guió per allunyar la imatge; o en les fletxes verdes per a mapes adjacents.


METAR-TAF: